Time;durP1;ratioP1;P1;durP2;ratioP2;P2;SDS_P1;SDS_P2;PMS_P1;PMS_P2;Temp;Humidity;BMP_temperature;BMP_pressure;BME280_temperature;BME280_humidity;BME280_pressure;Samples;Min_cycle;Max_cycle;Signal;HPM_P1;HPM_P2
2021/01/08 00:01:25;;;;;;;18.10;9.47;;;3.90;99.90;;;;;;4993979;28;20210;-82
2021/01/08 00:03:50;;;;;;;20.47;10.37;;;3.90;99.90;;;;;;4993849;28;20268;-82
2021/01/08 00:06:19;;;;;;;14.10;8.90;;;3.90;99.90;;;;;;4994186;28;20210;-82
2021/01/08 00:08:45;;;;;;;18.00;9.80;;;3.90;99.90;;;;;;4969483;28;20199;-83
2021/01/08 00:11:19;;;;;;;11.87;7.77;;;3.90;99.90;;;;;;4973205;28;20419;-83
2021/01/08 00:13:45;;;;;;;23.43;10.53;;;3.90;99.90;;;;;;4974623;28;20207;-83
2021/01/08 00:16:11;;;;;;;18.70;10.40;;;3.90;99.90;;;;;;4974572;28;20930;-82
2021/01/08 00:18:36;;;;;;;20.63;9.70;;;3.90;99.90;;;;;;4973230;28;20424;-82
2021/01/08 00:21:02;;;;;;;18.90;10.20;;;3.90;99.90;;;;;;4974415;28;20169;-82
2021/01/08 00:23:27;;;;;;;19.33;10.50;;;3.80;99.90;;;;;;4973967;28;20176;-82
2021/01/08 00:25:53;;;;;;;25.13;11.83;;;3.80;99.90;;;;;;4973156;28;20180;-82
2021/01/08 00:28:18;;;;;;;18.23;9.23;;;3.70;99.90;;;;;;4974510;28;20175;-81
2021/01/08 00:30:44;;;;;;;15.80;9.10;;;3.70;99.90;;;;;;4974343;28;20233;-82
2021/01/08 00:33:09;;;;;;;19.37;10.33;;;3.80;99.90;;;;;;4974293;28;20211;-83
2021/01/08 00:35:40;;;;;;;16.17;9.40;;;3.80;99.90;;;;;;4973077;28;20279;-83
2021/01/08 00:38:06;;;;;;;15.80;8.83;;;3.80;99.90;;;;;;4973915;28;20227;-83
2021/01/08 00:40:32;;;;;;;22.13;9.10;;;3.80;99.90;;;;;;4974296;28;20454;-83
2021/01/08 00:42:57;;;;;;;11.23;6.63;;;3.80;99.90;;;;;;4974247;28;20440;-83
2021/01/08 00:45:23;;;;;;;12.83;6.80;;;3.80;99.90;;;;;;4974218;28;20175;-82
2021/01/08 00:47:48;;;;;;;10.00;6.43;;;3.80;99.90;;;;;;4981193;28;20238;-82
2021/01/08 00:50:14;;;;;;;11.07;7.13;;;3.80;99.90;;;;;;5002386;28;20262;-82
2021/01/08 00:52:40;;;;;;;10.20;6.23;;;3.80;99.90;;;;;;4985111;28;20179;-82
2021/01/08 00:55:06;;;;;;;10.57;6.50;;;3.80;99.90;;;;;;4973487;28;20691;-82
2021/01/08 00:57:32;;;;;;;12.10;5.80;;;3.90;99.90;;;;;;4986010;28;20568;-83
2021/01/08 00:59:58;;;;;;;11.07;6.10;;;3.80;99.90;;;;;;5001842;28;20815;-83
2021/01/08 01:02:24;;;;;;;8.73;5.13;;;3.80;99.90;;;;;;4986513;28;20441;-82
2021/01/08 01:04:49;;;;;;;8.10;4.60;;;3.80;99.90;;;;;;4985367;28;20411;-82
2021/01/08 01:07:15;;;;;;;8.30;4.53;;;3.80;99.90;;;;;;5000392;28;20209;-82
2021/01/08 01:09:40;;;;;;;7.53;5.10;;;3.80;99.90;;;;;;4986969;28;20175;-82
2021/01/08 01:12:06;;;;;;;6.00;3.50;;;3.70;99.90;;;;;;4984627;28;20181;-83
2021/01/08 01:14:32;;;;;;;4.90;3.37;;;3.70;99.90;;;;;;4984601;28;20679;-82
2021/01/08 01:17:02;;;;;;;5.23;3.60;;;3.70;99.90;;;;;;4985528;28;20189;-83
2021/01/08 01:19:28;;;;;;;6.57;3.87;;;3.70;99.90;;;;;;4983922;28;20509;-82
2021/01/08 01:21:53;;;;;;;6.30;4.90;;;3.70;99.90;;;;;;5001458;28;20438;-82
2021/01/08 01:24:19;;;;;;;4.57;3.17;;;3.60;99.90;;;;;;4984671;28;20256;-82
2021/01/08 01:26:44;;;;;;;6.37;4.37;;;3.60;99.90;;;;;;4984664;28;20200;-82
2021/01/08 01:29:10;;;;;;;5.30;3.33;;;3.60;99.90;;;;;;4983177;28;20660;-83
2021/01/08 01:31:35;;;;;;;5.50;3.93;;;3.60;99.90;;;;;;5000382;28;20174;-83
2021/01/08 01:34:01;;;;;;;4.83;3.70;;;3.60;99.90;;;;;;4985763;28;20254;-82
2021/01/08 01:36:27;;;;;;;4.83;3.03;;;3.60;99.90;;;;;;4999103;28;20182;-82
2021/01/08 01:38:53;;;;;;;5.03;3.10;;;3.50;99.90;;;;;;4985326;28;20411;-82
2021/01/08 01:41:18;;;;;;;3.60;2.50;;;3.50;99.90;;;;;;4985250;28;20172;-82
2021/01/08 01:43:44;;;;;;;4.17;2.80;;;3.50;99.90;;;;;;4984192;28;20175;-82
2021/01/08 01:46:17;;;;;;;4.00;2.67;;;3.50;99.90;;;;;;4984636;28;20190;-82
2021/01/08 01:48:43;;;;;;;4.40;3.40;;;3.50;99.90;;;;;;4985493;28;20298;-82
2021/01/08 01:51:08;;;;;;;4.07;2.73;;;3.40;99.90;;;;;;4983928;28;20428;-82
2021/01/08 01:53:34;;;;;;;4.53;3.53;;;3.50;99.90;;;;;;4984863;28;20203;-82
2021/01/08 01:56:00;;;;;;;4.57;3.10;;;3.40;99.90;;;;;;4985161;28;20180;-82
2021/01/08 01:58:25;;;;;;;4.50;3.20;;;3.50;99.90;;;;;;4983730;28;20543;-82
2021/01/08 02:00:51;;;;;;;4.80;3.10;;;3.50;99.90;;;;;;4985608;28;20180;-82
2021/01/08 02:03:22;;;;;;;4.53;3.13;;;3.50;99.90;;;;;;4984277;28;20203;-82
2021/01/08 02:05:49;;;;;;;4.20;2.93;;;3.50;99.90;;;;;;4985216;28;20259;-82
2021/01/08 02:08:22;;;;;;;5.40;3.27;;;3.40;99.90;;;;;;4983103;28;20760;-82
2021/01/08 02:11:01;;;;;;;3.23;2.20;;;3.40;99.90;;;;;;4983823;28;20423;-82
2021/01/08 02:14:06;;;;;;;4.47;3.60;;;3.40;99.90;;;;;;4983703;28;20471;-83
2021/01/08 02:16:34;;;;;;;3.77;2.20;;;3.40;99.90;;;;;;4985024;28;20441;-82
2021/01/08 02:19:01;;;;;;;4.50;2.90;;;3.40;99.90;;;;;;4984209;28;20419;-82
2021/01/08 02:21:35;;;;;;;3.60;2.50;;;3.30;99.90;;;;;;4984094;28;20399;-81
2021/01/08 02:24:28;;;;;;;4.70;3.47;;;3.30;99.90;;;;;;4984456;28;20418;-82
2021/01/08 02:26:54;;;;;;;3.73;2.13;;;3.30;99.90;;;;;;4985340;28;20442;-82
2021/01/08 02:29:21;;;;;;;3.50;2.97;;;3.20;99.90;;;;;;4982618;28;20504;-82
2021/01/08 02:31:46;;;;;;;4.37;2.33;;;3.10;99.90;;;;;;4983161;28;20412;-82
2021/01/08 02:34:12;;;;;;;4.17;2.73;;;3.10;99.90;;;;;;4997534;28;20474;-82
2021/01/08 02:36:41;;;;;;;3.63;2.40;;;3.10;99.90;;;;;;5001031;28;20183;-83
2021/01/08 02:39:08;;;;;;;5.43;3.00;;;3.10;99.90;;;;;;4983846;28;20179;-83
2021/01/08 02:41:35;;;;;;;3.60;2.03;;;3.10;99.90;;;;;;4985608;28;20738;-83
2021/01/08 02:44:03;;;;;;;3.80;2.77;;;3.10;99.90;;;;;;4984411;28;20412;-83
2021/01/08 02:46:29;;;;;;;3.27;1.63;;;3.10;99.90;;;;;;4998517;28;20434;-83
2021/01/08 02:48:54;;;;;;;5.83;3.13;;;3.10;99.90;;;;;;4983813;28;20875;-82
2021/01/08 02:51:20;;;;;;;4.90;2.73;;;3.00;99.90;;;;;;4982701;28;20502;-83
2021/01/08 02:53:47;;;;;;;5.20;3.07;;;3.00;99.90;;;;;;4983468;28;20566;-83
2021/01/08 02:56:23;;;;;;;5.23;3.17;;;2.90;99.90;;;;;;4982506;28;20241;-83
2021/01/08 02:58:50;;;;;;;5.30;3.03;;;2.90;99.90;;;;;;4990671;28;20408;-82
2021/01/08 03:01:17;;;;;;;4.73;2.60;;;2.80;99.90;;;;;;4995034;28;20415;-83
2021/01/08 03:03:43;;;;;;;4.00;3.23;;;2.80;99.90;;;;;;4995091;28;20754;-83
2021/01/08 03:06:09;;;;;;;3.20;1.93;;;2.80;99.90;;;;;;4979526;28;20415;-83
2021/01/08 03:08:35;;;;;;;5.90;3.80;;;2.80;99.90;;;;;;4975097;28;20482;-83
2021/01/08 03:11:08;;;;;;;5.63;3.07;;;2.80;99.90;;;;;;4975537;28;20177;-83
2021/01/08 03:13:36;;;;;;;3.70;2.60;;;2.90;99.90;;;;;;4974909;28;20477;-83
2021/01/08 03:16:01;;;;;;;5.20;3.10;;;2.80;99.90;;;;;;4975421;28;20824;-83
2021/01/08 03:18:27;;;;;;;4.50;2.57;;;2.80;99.90;;;;;;4975369;28;20428;-83
2021/01/08 03:20:53;;;;;;;4.93;2.97;;;3.00;99.90;;;;;;4975452;28;20282;-83
2021/01/08 03:23:18;;;;;;;4.47;3.10;;;2.90;99.90;;;;;;4975000;28;20168;-83
2021/01/08 03:25:44;;;;;;;5.80;3.40;;;3.00;99.90;;;;;;4974036;28;20548;-83
2021/01/08 03:28:09;;;;;;;4.13;2.63;;;3.00;99.90;;;;;;4974024;28;20177;-82
2021/01/08 03:30:35;;;;;;;4.70;2.60;;;3.00;99.90;;;;;;4973967;28;20172;-82
2021/01/08 03:33:01;;;;;;;5.57;3.00;;;3.10;99.90;;;;;;4974949;28;20179;-82
2021/01/08 03:35:27;;;;;;;3.03;2.50;;;3.10;99.90;;;;;;4975250;28;20202;-83
2021/01/08 03:37:52;;;;;;;4.90;3.00;;;3.10;99.90;;;;;;4974744;28;20753;-83
2021/01/08 03:40:18;;;;;;;5.70;3.57;;;3.10;99.90;;;;;;4975146;28;20197;-83
2021/01/08 03:42:44;;;;;;;5.33;3.33;;;3.00;99.90;;;;;;4973701;28;20169;-82
2021/01/08 03:45:09;;;;;;;7.50;3.27;;;3.00;99.90;;;;;;4973758;28;20265;-82
2021/01/08 03:47:35;;;;;;;6.73;3.70;;;3.10;99.90;;;;;;4974864;28;20177;-83
2021/01/08 03:50:01;;;;;;;6.10;3.50;;;3.10;99.90;;;;;;4974650;28;20475;-82
2021/01/08 03:52:26;;;;;;;6.70;3.30;;;3.10;99.90;;;;;;4974565;28;20176;-83
2021/01/08 03:54:52;;;;;;;6.27;4.37;;;3.10;99.90;;;;;;4974675;28;20266;-82
2021/01/08 03:57:17;;;;;;;7.47;4.10;;;3.10;99.90;;;;;;4974765;28;20258;-82
2021/01/08 03:59:43;;;;;;;7.13;5.33;;;3.10;99.90;;;;;;4974618;28;20187;-82
2021/01/08 04:02:08;;;;;;;6.83;3.80;;;3.10;99.90;;;;;;4973483;28;20176;-82
2021/01/08 04:04:34;;;;;;;6.37;4.30;;;3.10;99.90;;;;;;4974643;28;20183;-82
2021/01/08 04:06:59;;;;;;;5.73;4.43;;;3.10;99.90;;;;;;4973017;28;20219;-83
2021/01/08 04:09:25;;;;;;;13.43;4.43;;;3.10;99.90;;;;;;4974558;28;20164;-82
2021/01/08 04:11:51;;;;;;;8.50;5.10;;;3.10;99.90;;;;;;4974484;28;20687;-83
2021/01/08 04:14:16;;;;;;;6.00;4.40;;;3.10;99.90;;;;;;4974327;28;20223;-83
2021/01/08 04:16:42;;;;;;;7.87;4.93;;;3.10;99.90;;;;;;4973242;28;20216;-83
2021/01/08 04:19:08;;;;;;;7.60;4.10;;;3.10;99.90;;;;;;4974438;28;20179;-83
2021/01/08 04:21:34;;;;;;;7.53;4.23;;;3.10;99.90;;;;;;4973176;28;20664;-83
2021/01/08 04:24:01;;;;;;;9.17;5.83;;;3.10;99.90;;;;;;4974094;28;20898;-83
2021/01/08 04:26:26;;;;;;;7.60;5.73;;;3.10;99.90;;;;;;4972931;28;20431;-83
2021/01/08 04:28:52;;;;;;;8.33;4.57;;;3.00;99.90;;;;;;4974295;28;20762;-83
2021/01/08 04:31:18;;;;;;;7.50;4.97;;;3.00;99.90;;;;;;4973128;28;20235;-83
2021/01/08 04:33:44;;;;;;;8.33;5.27;;;3.00;99.90;;;;;;4974141;28;20222;-83
2021/01/08 04:36:10;;;;;;;6.67;3.47;;;3.00;99.90;;;;;;4973024;28;20588;-83
2021/01/08 04:38:40;;;;;;;6.80;4.30;;;3.00;99.90;;;;;;4973939;28;20757;-83
2021/01/08 04:41:06;;;;;;;6.90;4.53;;;2.90;99.90;;;;;;4974160;28;20415;-83
2021/01/08 04:43:32;;;;;;;6.60;3.53;;;2.80;99.90;;;;;;4974216;28;20458;-83
2021/01/08 04:46:22;;;;;;;7.40;3.70;;;2.80;99.90;;;;;;4974192;28;20404;-83
2021/01/08 04:48:52;;;;;;;7.10;5.00;;;2.90;99.90;;;;;;4973855;28;20562;-82
2021/01/08 04:51:18;;;;;;;8.47;4.33;;;2.90;99.90;;;;;;4974104;28;20415;-82
2021/01/08 04:53:44;;;;;;;6.00;4.80;;;2.80;99.90;;;;;;4973198;28;20467;-82
2021/01/08 04:56:12;;;;;;;8.90;5.13;;;2.70;99.90;;;;;;4973417;28;20455;-83
2021/01/08 04:58:38;;;;;;;7.50;4.67;;;2.70;99.90;;;;;;4973441;28;20414;-83
2021/01/08 05:01:04;;;;;;;9.60;4.70;;;2.70;99.90;;;;;;4973405;28;20912;-83
2021/01/08 05:03:31;;;;;;;5.90;3.90;;;2.70;99.90;;;;;;4973449;28;20199;-83
2021/01/08 05:05:57;;;;;;;9.20;4.97;;;2.70;99.90;;;;;;4973340;28;20480;-82
2021/01/08 05:08:23;;;;;;;9.00;4.57;;;2.70;99.90;;;;;;4972949;28;20419;-82
2021/01/08 05:10:50;;;;;;;7.73;4.53;;;2.70;99.90;;;;;;4973311;28;20804;-82
2021/01/08 05:13:16;;;;;;;11.33;5.97;;;2.70;99.90;;;;;;4973233;28;20604;-83
2021/01/08 05:15:52;;;;;;;11.40;5.90;;;2.70;99.90;;;;;;4973163;28;20434;-83
2021/01/08 05:18:20;;;;;;;8.43;4.80;;;2.70;99.90;;;;;;4973154;28;20488;-83
2021/01/08 05:20:45;;;;;;;8.23;5.10;;;2.70;99.90;;;;;;4973293;28;20506;-83
2021/01/08 05:23:11;;;;;;;8.13;4.13;;;2.70;99.90;;;;;;4972772;28;20490;-83
2021/01/08 05:25:38;;;;;;;7.90;3.80;;;2.80;99.90;;;;;;4972703;28;20186;-83
2021/01/08 05:28:06;;;;;;;10.10;6.27;;;2.80;99.90;;;;;;4972792;28;20430;-83
2021/01/08 05:30:32;;;;;;;9.97;5.47;;;2.80;99.90;;;;;;4972734;28;20486;-82
2021/01/08 05:33:00;;;;;;;11.00;4.70;;;2.90;99.90;;;;;;4973059;28;20454;-82
2021/01/08 05:35:28;;;;;;;7.23;4.80;;;2.90;99.90;;;;;;4971682;28;20563;-83
2021/01/08 05:37:55;;;;;;;7.43;3.83;;;2.90;99.90;;;;;;4974386;28;20806;-84
2021/01/08 05:40:27;;;;;;;8.63;5.07;;;3.00;99.90;;;;;;4976702;28;20426;-83
2021/01/08 05:43:00;;;;;;;7.00;5.27;;;3.00;99.90;;;;;;4976570;28;20765;-83
2021/01/08 05:45:27;;;;;;;10.23;5.50;;;2.90;99.90;;;;;;4976550;28;20507;-83
2021/01/08 05:47:56;;;;;;;7.60;4.40;;;2.80;99.90;;;;;;4976453;28;20419;-83
2021/01/08 05:50:23;;;;;;;11.03;4.57;;;2.80;99.90;;;;;;4976451;28;20422;-83
2021/01/08 05:52:56;;;;;;;10.17;5.57;;;2.80;99.90;;;;;;4976052;28;20808;-83
2021/01/08 05:55:21;;;;;;;8.40;4.93;;;2.90;99.90;;;;;;4975126;28;20449;-84
2021/01/08 05:57:50;;;;;;;10.80;5.93;;;2.90;99.90;;;;;;4976182;28;20506;-83
2021/01/08 06:00:16;;;;;;;7.30;4.73;;;2.90;99.90;;;;;;4976326;28;20167;-82
2021/01/08 06:02:42;;;;;;;11.03;7.00;;;3.00;99.90;;;;;;4976306;28;20961;-83
2021/01/08 06:05:09;;;;;;;10.40;5.90;;;2.90;99.90;;;;;;4975909;28;20422;-83
2021/01/08 06:07:38;;;;;;;9.70;5.03;;;3.00;99.90;;;;;;4974523;28;20904;-82
2021/01/08 06:10:05;;;;;;;10.87;6.00;;;3.00;99.90;;;;;;4976074;28;20473;-81
2021/01/08 06:12:36;;;;;;;10.90;5.30;;;3.00;99.90;;;;;;4974805;28;20521;-82
2021/01/08 06:15:04;;;;;;;8.37;5.10;;;3.00;99.90;;;;;;4974744;28;20478;-82
2021/01/08 06:17:30;;;;;;;14.00;6.43;;;3.00;99.90;;;;;;4975808;28;20404;-82
2021/01/08 06:20:04;;;;;;;14.97;6.70;;;3.00;99.90;;;;;;4974587;28;20437;-82
2021/01/08 06:22:37;;;;;;;9.00;6.03;;;3.00;99.90;;;;;;4981432;28;20441;-82
2021/01/08 06:25:04;;;;;;;13.50;7.30;;;3.00;99.90;;;;;;5010200;28;20949;-82
2021/01/08 06:27:34;;;;;;;10.43;6.53;;;2.90;99.90;;;;;;5010921;28;20425;-81
2021/01/08 06:30:04;;;;;;;13.13;7.37;;;2.80;99.90;;;;;;4995795;28;20949;-81
2021/01/08 06:32:30;;;;;;;11.80;7.20;;;2.80;99.90;;;;;;4995765;28;20402;-81
2021/01/08 06:35:07;;;;;;;10.77;6.73;;;2.80;99.90;;;;;;4995546;28;20463;-83
2021/01/08 06:37:41;;;;;;;10.03;5.87;;;2.80;99.90;;;;;;5010506;28;20917;-82
2021/01/08 06:40:11;;;;;;;10.03;5.80;;;2.80;99.90;;;;;;4995686;28;20426;-83
2021/01/08 06:42:41;;;;;;;11.37;6.30;;;2.90;99.90;;;;;;4995669;28;20418;-83
2021/01/08 06:45:11;;;;;;;10.27;6.63;;;2.90;99.90;;;;;;4995538;28;20896;-84
2021/01/08 06:47:48;;;;;;;10.57;6.10;;;2.90;99.90;;;;;;4994181;28;20427;-84
2021/01/08 06:50:19;;;;;;;9.20;5.37;;;2.90;99.90;;;;;;5009290;28;20527;-83
2021/01/08 06:52:48;;;;;;;12.47;7.33;;;3.00;99.90;;;;;;5010210;28;20433;-84
2021/01/08 06:55:17;;;;;;;11.50;7.00;;;3.00;99.90;;;;;;4995343;28;20473;-83
2021/01/08 06:57:53;;;;;;;10.63;6.73;;;3.00;99.90;;;;;;5010423;28;20425;-84
2021/01/08 07:00:29;;;;;;;12.60;6.63;;;3.10;99.90;;;;;;4995341;28;20417;-84
2021/01/08 07:03:14;;;;;;;12.53;6.97;;;3.10;99.90;;;;;;4995212;28;20930;-84
2021/01/08 07:05:40;;;;;;;11.17;6.07;;;3.10;99.90;;;;;;4995199;28;20410;-84
2021/01/08 07:08:06;;;;;;;7.30;5.30;;;3.00;99.90;;;;;;4994810;28;20406;-84
2021/01/08 07:10:34;;;;;;;8.70;5.30;;;3.10;99.90;;;;;;4995094;28;20167;-83
2021/01/08 07:13:01;;;;;;;9.13;5.63;;;3.10;99.90;;;;;;4994829;28;20417;-84
2021/01/08 07:15:28;;;;;;;10.27;6.07;;;3.10;99.90;;;;;;4995010;28;20415;-84
2021/01/08 07:17:57;;;;;;;10.90;6.53;;;3.10;99.90;;;;;;5009981;28;20427;-83
2021/01/08 07:20:23;;;;;;;12.27;6.90;;;3.10;99.90;;;;;;4994902;28;20413;-83
2021/01/08 07:22:54;;;;;;;8.90;6.27;;;3.10;99.90;;;;;;4994339;28;20963;-84
2021/01/08 07:25:23;;;;;;;9.53;6.47;;;3.10;99.90;;;;;;4994777;28;20189;-84
2021/01/08 07:27:50;;;;;;;10.90;6.43;;;3.20;99.90;;;;;;5009857;28;20437;-84
2021/01/08 07:30:15;;;;;;;13.50;6.97;;;3.20;99.90;;;;;;5009808;28;20421;-84
2021/01/08 07:32:49;;;;;;;12.90;7.73;;;3.10;99.90;;;;;;4994735;28;20403;-84
2021/01/08 07:35:29;;;;;;;11.50;6.57;;;3.20;99.90;;;;;;4994593;28;20209;-84
2021/01/08 07:38:01;;;;;;;11.13;7.43;;;3.20;99.90;;;;;;5009279;28;20425;-83
2021/01/08 07:40:35;;;;;;;12.20;8.20;;;3.20;99.90;;;;;;4994298;28;20816;-83
2021/01/08 07:43:09;;;;;;;15.00;7.87;;;3.30;99.90;;;;;;4994478;28;21011;-83
2021/01/08 07:45:44;;;;;;;9.57;6.27;;;3.20;99.90;;;;;;4994347;28;20416;-83
2021/01/08 07:48:38;;;;;;;15.63;8.57;;;3.20;99.90;;;;;;4994268;28;20778;-83
2021/01/08 07:51:05;;;;;;;9.50;5.97;;;3.20;99.90;;;;;;4994327;28;20422;-83
2021/01/08 07:53:43;;;;;;;14.40;8.00;;;3.10;99.90;;;;;;4993983;28;21018;-84
2021/01/08 07:56:17;;;;;;;12.90;7.50;;;3.10;99.90;;;;;;4988541;28;20437;-82
2021/01/08 07:59:07;;;;;;;14.40;8.97;;;3.00;99.90;;;;;;4973546;28;20431;-84
2021/01/08 08:01:36;;;;;;;15.47;8.33;;;3.00;99.90;;;;;;4973918;28;20502;-83
2021/01/08 08:04:07;;;;;;;16.30;9.30;;;3.00;99.90;;;;;;4973456;28;20915;-84
2021/01/08 08:06:35;;;;;;;19.50;8.90;;;2.90;99.90;;;;;;4974288;28;20465;-83
2021/01/08 08:09:04;;;;;;;14.53;8.63;;;2.90;99.90;;;;;;4974579;28;20503;-83
2021/01/08 08:11:32;;;;;;;12.27;7.67;;;2.90;99.90;;;;;;4974570;28;20792;-83
2021/01/08 08:13:59;;;;;;;16.80;9.07;;;2.90;99.90;;;;;;4974487;28;20517;-83
2021/01/08 08:16:39;;;;;;;14.80;9.30;;;2.90;99.90;;;;;;4973268;28;20935;-84
2021/01/08 08:19:06;;;;;;;15.40;8.63;;;2.90;99.90;;;;;;4974457;28;20434;-83
2021/01/08 08:21:32;;;;;;;22.80;10.10;;;2.90;99.90;;;;;;4973994;28;20450;-84
2021/01/08 08:23:58;;;;;;;12.60;6.90;;;2.90;99.90;;;;;;4974494;28;20426;-84
2021/01/08 08:26:25;;;;;;;14.87;9.40;;;2.90;99.90;;;;;;4974279;28;20469;-83
2021/01/08 08:29:12;;;;;;;14.80;8.47;;;3.00;99.90;;;;;;4973157;28;20418;-83
2021/01/08 08:31:39;;;;;;;15.73;8.67;;;3.10;99.90;;;;;;4973101;28;20435;-84
2021/01/08 08:34:07;;;;;;;13.90;8.57;;;3.20;99.90;;;;;;4974307;28;20473;-84
2021/01/08 08:36:33;;;;;;;17.23;8.63;;;3.10;99.90;;;;;;4973790;28;20843;-83
2021/01/08 08:39:01;;;;;;;17.40;8.20;;;3.10;99.90;;;;;;4989213;28;20467;-84
2021/01/08 08:41:28;;;;;;;14.50;9.33;;;3.10;99.90;;;;;;4974406;28;20172;-84
2021/01/08 08:44:01;;;;;;;15.20;8.83;;;3.20;99.90;;;;;;4974245;28;20501;-84
2021/01/08 08:46:52;;;;;;;16.33;8.90;;;3.30;99.90;;;;;;4974162;28;20752;-84
2021/01/08 08:49:29;;;;;;;15.80;8.30;;;3.30;99.90;;;;;;4973958;28;20550;-84
2021/01/08 08:51:56;;;;;;;16.90;8.90;;;3.30;99.90;;;;;;4973843;28;20414;-85
2021/01/08 08:54:24;;;;;;;15.63;7.93;;;3.30;99.90;;;;;;4974094;28;20831;-83
2021/01/08 08:56:51;;;;;;;13.33;8.10;;;3.40;99.90;;;;;;4974141;28;20406;-84
2021/01/08 08:59:46;;;;;;;16.87;9.60;;;3.50;99.90;;;;;;4974282;28;20463;-87
2021/01/08 09:02:15;;;;;;;16.80;7.27;;;3.60;99.90;;;;;;4973349;28;20433;-86
2021/01/08 09:04:57;;;;;;;15.17;8.77;;;3.60;99.90;;;;;;4974356;28;20461;-84
2021/01/08 09:07:45;;;;;;;12.67;8.37;;;3.60;99.90;;;;;;4973858;28;20487;-83
2021/01/08 09:10:15;;;;;;;11.77;8.10;;;3.60;99.90;;;;;;4972836;28;20944;-83
2021/01/08 09:12:47;;;;;;;15.10;9.40;;;3.60;99.90;;;;;;4975475;28;20419;-83
2021/01/08 09:15:27;;;;;;;11.17;6.30;;;3.70;99.90;;;;;;4976562;28;20561;-84
2021/01/08 09:18:11;;;;;;;14.07;8.63;;;3.70;99.90;;;;;;4978067;28;20474;-84
2021/01/08 09:20:49;;;;;;;12.27;8.07;;;3.70;99.90;;;;;;4992833;28;20818;-86
2021/01/08 09:23:16;;;;;;;13.00;7.10;;;3.70;99.90;;;;;;4977485;28;20420;-83
2021/01/08 09:25:42;;;;;;;14.80;8.23;;;3.70;99.90;;;;;;4992539;28;20814;-83
2021/01/08 09:28:16;;;;;;;12.30;7.93;;;3.70;99.90;;;;;;4977515;28;20414;-83
2021/01/08 09:30:51;;;;;;;14.70;9.20;;;3.70;99.90;;;;;;4977578;28;20408;-84
2021/01/08 09:33:17;;;;;;;11.53;7.33;;;3.80;99.90;;;;;;4976065;28;20806;-84
2021/01/08 09:35:44;;;;;;;11.77;7.67;;;3.80;99.90;;;;;;4976260;28;20427;-84
2021/01/08 09:38:13;;;;;;;16.83;9.00;;;3.70;99.90;;;;;;4975689;28;20176;-84
2021/01/08 09:40:39;;;;;;;13.40;7.37;;;3.90;99.90;;;;;;4977266;28;20438;-84
2021/01/08 09:43:13;;;;;;;11.03;7.43;;;3.90;99.90;;;;;;4977308;28;20919;-84
2021/01/08 09:45:38;;;;;;;13.80;8.23;;;3.90;99.90;;;;;;4977411;28;20967;-84
2021/01/08 09:48:04;;;;;;;10.90;6.80;;;3.90;99.90;;;;;;4976975;28;20411;-84
2021/01/08 09:50:34;;;;;;;12.93;7.17;;;4.00;99.90;;;;;;4977162;28;20533;-84
2021/01/08 09:53:01;;;;;;;12.80;7.60;;;4.00;99.90;;;;;;4976824;28;20411;-84
2021/01/08 09:55:31;;;;;;;13.50;7.80;;;3.90;99.90;;;;;;4976975;28;20432;-84
2021/01/08 09:58:01;;;;;;;11.73;7.50;;;3.90;99.90;;;;;;4975224;28;20431;-83
2021/01/08 10:00:36;;;;;;;13.17;7.63;;;3.80;99.90;;;;;;4974475;28;20435;-84
2021/01/08 10:03:02;;;;;;;15.83;8.20;;;3.70;99.90;;;;;;4975103;28;20431;-84
2021/01/08 10:05:33;;;;;;;15.07;7.43;;;3.70;99.90;;;;;;4983212;28;20850;-86
2021/01/08 10:08:01;;;;;;;12.70;8.07;;;3.60;99.90;;;;;;4983045;28;20491;-84
2021/01/08 10:10:26;;;;;;;13.90;7.70;;;3.60;99.90;;;;;;4977264;28;20438;-84
2021/01/08 10:12:54;;;;;;;11.20;7.90;;;3.50;99.90;;;;;;4976234;28;20434;-85
2021/01/08 10:15:32;;;;;;;11.30;7.10;;;3.50;99.90;;;;;;4979426;28;20701;-85
2021/01/08 10:18:10;;;;;;;13.67;6.87;;;3.50;99.90;;;;;;4982012;28;20423;-84
2021/01/08 10:20:49;;;;;;;10.60;6.87;;;3.40;99.90;;;;;;4976450;28;20400;-85
2021/01/08 10:23:25;;;;;;;16.80;8.50;;;3.50;99.90;;;;;;4976131;28;20777;-85
2021/01/08 10:25:52;;;;;;;11.43;7.87;;;3.50;99.90;;;;;;5007657;28;20412;-87
2021/01/08 10:28:23;;;;;;;11.73;7.43;;;3.60;99.90;;;;;;4975873;28;20479;-84
2021/01/08 10:30:51;;;;;;;15.90;7.90;;;3.70;99.90;;;;;;4976330;28;20426;-85
2021/01/08 10:33:17;;;;;;;13.67;6.57;;;3.70;99.90;;;;;;4976262;28;20415;-85
2021/01/08 10:35:51;;;;;;;10.17;6.23;;;3.70;99.90;;;;;;4975854;28;20500;-84
2021/01/08 10:38:17;;;;;;;10.77;7.33;;;3.70;99.90;;;;;;4984279;28;20941;-84
2021/01/08 10:40:43;;;;;;;11.53;7.40;;;3.60;99.90;;;;;;4984024;28;20427;-84
2021/01/08 10:43:09;;;;;;;8.93;6.33;;;3.70;99.90;;;;;;4996191;28;20415;-84
2021/01/08 10:45:36;;;;;;;11.27;6.80;;;3.60;99.90;;;;;;4976562;28;20485;-84
2021/01/08 10:48:02;;;;;;;10.83;7.57;;;3.70;99.90;;;;;;4976206;28;20169;-84
2021/01/08 10:50:27;;;;;;;10.90;8.50;;;3.60;99.90;;;;;;4991654;28;20514;-84
2021/01/08 10:52:53;;;;;;;10.03;6.00;;;3.60;99.90;;;;;;4976223;28;20552;-84
2021/01/08 10:55:19;;;;;;;14.10;7.47;;;3.60;99.90;;;;;;4977223;28;20212;-84
2021/01/08 10:57:44;;;;;;;9.23;6.50;;;3.60;99.90;;;;;;4978316;28;20181;-84
2021/01/08 11:00:12;;;;;;;11.67;7.40;;;3.60;99.90;;;;;;4980994;28;20180;-84
2021/01/08 11:02:38;;;;;;;10.67;7.20;;;3.60;99.90;;;;;;4983377;28;20659;-83
2021/01/08 11:05:05;;;;;;;12.40;6.13;;;3.70;99.90;;;;;;4981402;28;20470;-84
2021/01/08 11:07:33;;;;;;;14.83;8.27;;;3.70;99.90;;;;;;4978112;28;20538;-83
2021/01/08 11:10:04;;;;;;;10.87;8.37;;;3.80;99.90;;;;;;4974246;28;20431;-84
2021/01/08 11:12:31;;;;;;;10.50;6.70;;;3.70;99.90;;;;;;4978318;28;20522;-84
2021/01/08 11:14:58;;;;;;;13.13;8.83;;;3.80;99.90;;;;;;4974954;28;21000;-83
2021/01/08 11:17:23;;;;;;;10.70;5.73;;;3.70;99.90;;;;;;4974235;28;20405;-83
2021/01/08 11:19:50;;;;;;;9.57;5.80;;;3.80;99.90;;;;;;4973990;28;20474;-84
2021/01/08 11:22:15;;;;;;;10.23;6.70;;;3.70;99.90;;;;;;4982588;28;20703;-83
2021/01/08 11:24:41;;;;;;;13.17;6.13;;;3.70;99.90;;;;;;4984384;28;20521;-84
2021/01/08 11:27:07;;;;;;;10.20;6.90;;;3.80;99.90;;;;;;4978302;28;20222;-84
2021/01/08 11:29:33;;;;;;;8.83;6.70;;;3.90;99.90;;;;;;4979439;28;20242;-85
2021/01/08 11:31:59;;;;;;;11.17;8.17;;;3.90;99.90;;;;;;4969515;28;20258;-85
2021/01/08 11:34:25;;;;;;;11.70;6.83;;;4.00;99.90;;;;;;4974589;28;20816;-84
2021/01/08 11:36:55;;;;;;;12.73;8.10;;;3.90;99.90;;;;;;4974259;28;20423;-84
2021/01/08 11:39:22;;;;;;;12.20;7.20;;;4.00;99.90;;;;;;4983876;23;20233;-84
2021/01/08 11:41:47;;;;;;;9.67;6.40;;;3.90;99.90;;;;;;4917159;29;20457;-84
2021/01/08 11:44:13;;;;;;;9.60;6.40;;;3.90;99.90;;;;;;4920989;29;20468;-83
2021/01/08 11:46:40;;;;;;;10.73;5.00;;;4.00;99.90;;;;;;4917315;29;20266;-83
2021/01/08 11:49:06;;;;;;;12.53;7.53;;;3.90;99.90;;;;;;4916097;29;20536;-84
2021/01/08 11:51:31;;;;;;;7.10;5.47;;;3.80;99.90;;;;;;4915674;29;20518;-83
2021/01/08 11:53:58;;;;;;;10.23;5.80;;;3.80;99.90;;;;;;4916575;29;20225;-84
2021/01/08 11:56:28;;;;;;;12.30;6.60;;;3.80;99.90;;;;;;4915816;29;20446;-82
2021/01/08 11:58:54;;;;;;;8.70;6.90;;;3.70;99.90;;;;;;4931736;29;20261;-84
2021/01/08 12:01:27;;;;;;;10.27;6.57;;;3.50;99.90;;;;;;4917297;29;20504;-84
2021/01/08 12:03:56;;;;;;;8.97;6.00;;;3.60;99.90;;;;;;4915943;29;20198;-85
2021/01/08 12:06:30;;;;;;;8.40;6.07;;;3.60;99.90;;;;;;4922960;29;20917;-84
2021/01/08 12:08:57;;;;;;;8.90;6.50;;;3.60;99.90;;;;;;4934247;29;21158;-85
2021/01/08 12:11:25;;;;;;;11.53;6.67;;;3.70;99.90;;;;;;4935811;29;20432;-84
2021/01/08 12:13:51;;;;;;;14.83;7.27;;;3.60;99.90;;;;;;4933240;29;21005;-84
2021/01/08 12:16:28;;;;;;;11.60;6.77;;;3.60;99.90;;;;;;4916921;29;20418;-85
2021/01/08 12:18:54;;;;;;;9.40;5.27;;;3.60;99.90;;;;;;4916905;29;20422;-85
2021/01/08 12:21:22;;;;;;;11.00;6.70;;;3.60;99.90;;;;;;4920497;29;20485;-85
2021/01/08 12:23:48;;;;;;;7.93;5.10;;;3.50;99.90;;;;;;4915516;29;20193;-84
2021/01/08 12:26:18;;;;;;;11.43;6.60;;;3.50;99.90;;;;;;4946426;29;21082;-84
2021/01/08 12:28:50;;;;;;;7.90;4.90;;;3.60;99.90;;;;;;4934481;29;20437;-84
2021/01/08 12:31:24;;;;;;;8.10;5.60;;;3.70;99.90;;;;;;4935719;29;20572;-82
2021/01/08 12:33:51;;;;;;;11.40;6.53;;;3.70;99.90;;;;;;4935694;29;20473;-82
2021/01/08 12:36:18;;;;;;;9.40;6.80;;;3.70;99.90;;;;;;4935276;29;20428;-83
2021/01/08 12:38:43;;;;;;;9.73;6.50;;;3.70;99.90;;;;;;4934343;29;20965;-82
2021/01/08 12:41:09;;;;;;;12.20;7.30;;;3.80;99.90;;;;;;4934642;29;20516;-82
2021/01/08 12:43:34;;;;;;;9.33;6.37;;;3.80;99.90;;;;;;4934203;29;20178;-83
2021/01/08 12:46:00;;;;;;;9.47;6.37;;;3.80;99.90;;;;;;4935751;29;20255;-83
2021/01/08 12:48:25;;;;;;;10.67;5.30;;;3.80;99.90;;;;;;4939408;29;20236;-83
2021/01/08 12:50:51;;;;;;;9.20;5.43;;;3.80;99.90;;;;;;4937778;29;20188;-83
2021/01/08 12:53:17;;;;;;;8.43;5.97;;;3.90;99.90;;;;;;4939126;29;20174;-82
2021/01/08 12:55:42;;;;;;;15.13;7.73;;;3.80;99.90;;;;;;4939164;29;20634;-83
2021/01/08 12:58:08;;;;;;;10.70;5.80;;;3.80;99.90;;;;;;4938151;29;20177;-84